sensor_id;sensor_type;location;lat;lon;timestamp;P1;durP1;ratioP1;P2;durP2;ratioP2
53497;SDS011;39382;47.168;16.008;2023-06-22T00:00:29;11.40;;;6.95;;
53497;SDS011;39382;47.168;16.008;2023-06-22T00:02:55;11.00;;;7.35;;
53497;SDS011;39382;47.168;16.008;2023-06-22T00:05:20;12.57;;;7.35;;
53497;SDS011;39382;47.168;16.008;2023-06-22T00:07:46;13.40;;;8.02;;
53497;SDS011;39382;47.168;16.008;2023-06-22T00:10:12;10.25;;;7.60;;
53497;SDS011;39382;47.168;16.008;2023-06-22T00:12:37;11.30;;;8.13;;
53497;SDS011;39382;47.168;16.008;2023-06-22T00:15:03;13.68;;;7.22;;
53497;SDS011;39382;47.168;16.008;2023-06-22T00:17:29;10.30;;;7.43;;
53497;SDS011;39382;47.168;16.008;2023-06-22T00:19:55;11.40;;;8.05;;
53497;SDS011;39382;47.168;16.008;2023-06-22T00:22:23;12.05;;;7.43;;
53497;SDS011;39382;47.168;16.008;2023-06-22T00:24:54;12.77;;;7.28;;
53497;SDS011;39382;47.168;16.008;2023-06-22T00:27:20;11.63;;;7.20;;
53497;SDS011;39382;47.168;16.008;2023-06-22T00:29:46;9.02;;;6.00;;
53497;SDS011;39382;47.168;16.008;2023-06-22T00:32:12;14.63;;;7.35;;
53497;SDS011;39382;47.168;16.008;2023-06-22T00:34:37;12.18;;;7.43;;
53497;SDS011;39382;47.168;16.008;2023-06-22T00:37:03;12.82;;;7.82;;
53497;SDS011;39382;47.168;16.008;2023-06-22T00:39:29;13.88;;;7.72;;
53497;SDS011;39382;47.168;16.008;2023-06-22T00:41:55;9.85;;;7.65;;
53497;SDS011;39382;47.168;16.008;2023-06-22T00:44:20;13.10;;;7.45;;
53497;SDS011;39382;47.168;16.008;2023-06-22T00:46:46;8.65;;;6.60;;
53497;SDS011;39382;47.168;16.008;2023-06-22T00:49:12;10.18;;;6.75;;
53497;SDS011;39382;47.168;16.008;2023-06-22T00:51:38;14.70;;;7.10;;
53497;SDS011;39382;47.168;16.008;2023-06-22T00:54:04;11.98;;;7.88;;
53497;SDS011;39382;47.168;16.008;2023-06-22T00:56:31;11.63;;;6.88;;
53497;SDS011;39382;47.168;16.008;2023-06-22T00:58:58;8.05;;;6.78;;
53497;SDS011;39382;47.168;16.008;2023-06-22T01:01:25;10.90;;;7.18;;
53497;SDS011;39382;47.168;16.008;2023-06-22T01:03:51;11.75;;;7.60;;
53497;SDS011;39382;47.168;16.008;2023-06-22T01:06:19;8.20;;;6.13;;
53497;SDS011;39382;47.168;16.008;2023-06-22T01:08:53;14.40;;;8.13;;
53497;SDS011;39382;47.168;16.008;2023-06-22T01:11:37;10.27;;;6.88;;
53497;SDS011;39382;47.168;16.008;2023-06-22T01:14:12;13.68;;;8.10;;
53497;SDS011;39382;47.168;16.008;2023-06-22T01:16:44;10.48;;;6.80;;
53497;SDS011;39382;47.168;16.008;2023-06-22T01:19:20;18.35;;;7.45;;
53497;SDS011;39382;47.168;16.008;2023-06-22T01:22:09;10.73;;;7.03;;
53497;SDS011;39382;47.168;16.008;2023-06-22T01:29:57;15.82;;;8.10;;
53497;SDS011;39382;47.168;16.008;2023-06-22T01:32:32;9.40;;;7.25;;
53497;SDS011;39382;47.168;16.008;2023-06-22T01:35:00;10.70;;;7.13;;
53497;SDS011;39382;47.168;16.008;2023-06-22T01:37:27;12.00;;;7.60;;
53497;SDS011;39382;47.168;16.008;2023-06-22T01:39:55;9.82;;;7.38;;
53497;SDS011;39382;47.168;16.008;2023-06-22T01:42:23;10.15;;;6.03;;
53497;SDS011;39382;47.168;16.008;2023-06-22T01:44:49;10.02;;;6.95;;
53497;SDS011;39382;47.168;16.008;2023-06-22T01:47:20;10.75;;;6.95;;
53497;SDS011;39382;47.168;16.008;2023-06-22T01:49:46;11.90;;;7.35;;
53497;SDS011;39382;47.168;16.008;2023-06-22T01:52:13;11.02;;;6.60;;
53497;SDS011;39382;47.168;16.008;2023-06-22T01:54:39;10.55;;;6.45;;
53497;SDS011;39382;47.168;16.008;2023-06-22T01:57:05;8.35;;;6.07;;
53497;SDS011;39382;47.168;16.008;2023-06-22T01:59:35;11.93;;;6.00;;
53497;SDS011;39382;47.168;16.008;2023-06-22T02:02:08;11.90;;;7.72;;
53497;SDS011;39382;47.168;16.008;2023-06-22T02:04:46;13.00;;;6.57;;
53497;SDS011;39382;47.168;16.008;2023-06-22T02:07:15;16.33;;;7.35;;
53497;SDS011;39382;47.168;16.008;2023-06-22T02:09:44;12.93;;;7.32;;
53497;SDS011;39382;47.168;16.008;2023-06-22T02:12:12;16.75;;;6.57;;
53497;SDS011;39382;47.168;16.008;2023-06-22T02:14:41;9.63;;;6.35;;
53497;SDS011;39382;47.168;16.008;2023-06-22T02:17:08;15.30;;;8.18;;
53497;SDS011;39382;47.168;16.008;2023-06-22T02:19:38;12.15;;;7.60;;
53497;SDS011;39382;47.168;16.008;2023-06-22T02:22:06;14.02;;;7.63;;
53497;SDS011;39382;47.168;16.008;2023-06-22T02:24:32;10.73;;;7.22;;
53497;SDS011;39382;47.168;16.008;2023-06-22T02:26:58;10.63;;;6.72;;
53497;SDS011;39382;47.168;16.008;2023-06-22T02:29:24;11.68;;;7.18;;
53497;SDS011;39382;47.168;16.008;2023-06-22T02:31:51;12.55;;;6.82;;
53497;SDS011;39382;47.168;16.008;2023-06-22T02:34:17;10.10;;;7.65;;
53497;SDS011;39382;47.168;16.008;2023-06-22T02:36:46;11.07;;;7.03;;
53497;SDS011;39382;47.168;16.008;2023-06-22T02:39:24;9.85;;;6.85;;
53497;SDS011;39382;47.168;16.008;2023-06-22T02:41:51;11.50;;;6.72;;
53497;SDS011;39382;47.168;16.008;2023-06-22T02:44:18;9.50;;;6.63;;
53497;SDS011;39382;47.168;16.008;2023-06-22T02:46:45;11.52;;;6.47;;
53497;SDS011;39382;47.168;16.008;2023-06-22T02:49:11;8.50;;;5.88;;
53497;SDS011;39382;47.168;16.008;2023-06-22T02:51:42;11.00;;;6.57;;
53497;SDS011;39382;47.168;16.008;2023-06-22T02:54:10;12.00;;;5.97;;
53497;SDS011;39382;47.168;16.008;2023-06-22T02:56:36;15.82;;;7.45;;
53497;SDS011;39382;47.168;16.008;2023-06-22T02:59:02;10.80;;;6.45;;
53497;SDS011;39382;47.168;16.008;2023-06-22T03:01:28;10.35;;;7.15;;
53497;SDS011;39382;47.168;16.008;2023-06-22T03:03:55;12.30;;;7.28;;
53497;SDS011;39382;47.168;16.008;2023-06-22T03:06:21;6.72;;;5.53;;
53497;SDS011;39382;47.168;16.008;2023-06-22T03:08:48;9.32;;;6.90;;
53497;SDS011;39382;47.168;16.008;2023-06-22T03:11:14;8.55;;;5.88;;
53497;SDS011;39382;47.168;16.008;2023-06-22T03:13:40;8.13;;;5.63;;
53497;SDS011;39382;47.168;16.008;2023-06-22T03:16:06;7.15;;;5.18;;
53497;SDS011;39382;47.168;16.008;2023-06-22T03:18:31;8.38;;;5.55;;
53497;SDS011;39382;47.168;16.008;2023-06-22T03:20:57;8.57;;;5.60;;
53497;SDS011;39382;47.168;16.008;2023-06-22T03:23:23;9.65;;;5.93;;
53497;SDS011;39382;47.168;16.008;2023-06-22T03:25:49;7.95;;;5.65;;
53497;SDS011;39382;47.168;16.008;2023-06-22T03:28:14;12.60;;;6.22;;
53497;SDS011;39382;47.168;16.008;2023-06-22T03:30:40;7.88;;;4.88;;
53497;SDS011;39382;47.168;16.008;2023-06-22T03:33:05;7.72;;;4.43;;
53497;SDS011;39382;47.168;16.008;2023-06-22T03:35:31;6.63;;;5.15;;
53497;SDS011;39382;47.168;16.008;2023-06-22T03:37:57;8.52;;;5.70;;
53497;SDS011;39382;47.168;16.008;2023-06-22T03:40:22;7.57;;;5.68;;
53497;SDS011;39382;47.168;16.008;2023-06-22T03:42:48;8.70;;;5.07;;
53497;SDS011;39382;47.168;16.008;2023-06-22T03:45:13;9.20;;;5.65;;
53497;SDS011;39382;47.168;16.008;2023-06-22T03:47:39;8.57;;;5.72;;
53497;SDS011;39382;47.168;16.008;2023-06-22T03:50:05;9.90;;;6.30;;
53497;SDS011;39382;47.168;16.008;2023-06-22T03:52:31;10.30;;;6.65;;
53497;SDS011;39382;47.168;16.008;2023-06-22T03:54:57;11.15;;;5.97;;
53497;SDS011;39382;47.168;16.008;2023-06-22T03:57:23;8.60;;;5.72;;
53497;SDS011;39382;47.168;16.008;2023-06-22T03:59:49;10.25;;;6.45;;
53497;SDS011;39382;47.168;16.008;2023-06-22T04:02:15;15.43;;;8.18;;
53497;SDS011;39382;47.168;16.008;2023-06-22T04:04:41;11.13;;;5.72;;
53497;SDS011;39382;47.168;16.008;2023-06-22T04:07:06;14.25;;;7.10;;
53497;SDS011;39382;47.168;16.008;2023-06-22T04:09:32;12.00;;;6.13;;
53497;SDS011;39382;47.168;16.008;2023-06-22T04:11:58;11.77;;;6.32;;
53497;SDS011;39382;47.168;16.008;2023-06-22T04:14:24;9.25;;;7.28;;
53497;SDS011;39382;47.168;16.008;2023-06-22T04:16:49;12.05;;;6.13;;
53497;SDS011;39382;47.168;16.008;2023-06-22T04:19:15;8.60;;;6.25;;
53497;SDS011;39382;47.168;16.008;2023-06-22T04:21:43;9.77;;;6.55;;
53497;SDS011;39382;47.168;16.008;2023-06-22T04:24:13;9.00;;;6.53;;
53497;SDS011;39382;47.168;16.008;2023-06-22T04:26:39;13.70;;;6.43;;
53497;SDS011;39382;47.168;16.008;2023-06-22T04:29:07;11.73;;;7.72;;
53497;SDS011;39382;47.168;16.008;2023-06-22T04:31:36;15.23;;;6.65;;
53497;SDS011;39382;47.168;16.008;2023-06-22T04:34:03;9.48;;;6.82;;
53497;SDS011;39382;47.168;16.008;2023-06-22T04:36:32;10.30;;;6.43;;
53497;SDS011;39382;47.168;16.008;2023-06-22T04:39:02;9.10;;;6.82;;
53497;SDS011;39382;47.168;16.008;2023-06-22T04:41:32;12.65;;;7.03;;
53497;SDS011;39382;47.168;16.008;2023-06-22T04:44:16;10.40;;;6.00;;
53497;SDS011;39382;47.168;16.008;2023-06-22T04:46:54;14.48;;;7.05;;
53497;SDS011;39382;47.168;16.008;2023-06-22T04:49:28;13.68;;;8.27;;
53497;SDS011;39382;47.168;16.008;2023-06-22T04:51:58;11.80;;;6.88;;
53497;SDS011;39382;47.168;16.008;2023-06-22T04:54:25;8.95;;;6.82;;
53497;SDS011;39382;47.168;16.008;2023-06-22T04:56:51;10.65;;;6.65;;
53497;SDS011;39382;47.168;16.008;2023-06-22T04:59:26;8.35;;;5.90;;
53497;SDS011;39382;47.168;16.008;2023-06-22T05:01:56;9.18;;;5.80;;
53497;SDS011;39382;47.168;16.008;2023-06-22T05:04:26;10.23;;;6.00;;
53497;SDS011;39382;47.168;16.008;2023-06-22T05:06:59;11.20;;;5.88;;
53497;SDS011;39382;47.168;16.008;2023-06-22T05:09:25;8.75;;;6.68;;
53497;SDS011;39382;47.168;16.008;2023-06-22T05:11:51;9.65;;;6.20;;
53497;SDS011;39382;47.168;16.008;2023-06-22T05:14:17;14.13;;;6.22;;
53497;SDS011;39382;47.168;16.008;2023-06-22T05:16:44;12.20;;;5.57;;
53497;SDS011;39382;47.168;16.008;2023-06-22T05:19:10;8.85;;;5.63;;
53497;SDS011;39382;47.168;16.008;2023-06-22T05:21:36;10.23;;;5.93;;
53497;SDS011;39382;47.168;16.008;2023-06-22T05:24:02;10.38;;;6.47;;
53497;SDS011;39382;47.168;16.008;2023-06-22T05:26:29;15.05;;;6.72;;
53497;SDS011;39382;47.168;16.008;2023-06-22T05:28:56;12.15;;;7.00;;
53497;SDS011;39382;47.168;16.008;2023-06-22T05:31:22;7.30;;;5.88;;
53497;SDS011;39382;47.168;16.008;2023-06-22T05:33:50;12.40;;;6.32;;
53497;SDS011;39382;47.168;16.008;2023-06-22T05:36:17;11.15;;;5.38;;
53497;SDS011;39382;47.168;16.008;2023-06-22T05:38:44;9.85;;;6.47;;
53497;SDS011;39382;47.168;16.008;2023-06-22T05:41:10;9.90;;;6.68;;
53497;SDS011;39382;47.168;16.008;2023-06-22T05:43:36;11.50;;;6.90;;
53497;SDS011;39382;47.168;16.008;2023-06-22T05:46:02;9.65;;;5.90;;
53497;SDS011;39382;47.168;16.008;2023-06-22T05:48:28;11.73;;;6.18;;
53497;SDS011;39382;47.168;16.008;2023-06-22T05:50:54;12.20;;;6.45;;
53497;SDS011;39382;47.168;16.008;2023-06-22T05:53:20;10.68;;;6.55;;
53497;SDS011;39382;47.168;16.008;2023-06-22T05:55:46;10.93;;;6.13;;
53497;SDS011;39382;47.168;16.008;2023-06-22T05:58:11;14.73;;;5.72;;
53497;SDS011;39382;47.168;16.008;2023-06-22T06:00:38;9.40;;;6.13;;
53497;SDS011;39382;47.168;16.008;2023-06-22T06:03:04;7.65;;;5.70;;
53497;SDS011;39382;47.168;16.008;2023-06-22T06:05:31;10.55;;;5.57;;
53497;SDS011;39382;47.168;16.008;2023-06-22T06:07:57;12.27;;;6.75;;
53497;SDS011;39382;47.168;16.008;2023-06-22T06:10:24;8.48;;;6.32;;
53497;SDS011;39382;47.168;16.008;2023-06-22T06:12:50;10.75;;;6.32;;
53497;SDS011;39382;47.168;16.008;2023-06-22T06:15:16;15.60;;;7.22;;
53497;SDS011;39382;47.168;16.008;2023-06-22T06:17:51;13.13;;;6.03;;
53497;SDS011;39382;47.168;16.008;2023-06-22T06:20:18;8.40;;;5.75;;
53497;SDS011;39382;47.168;16.008;2023-06-22T06:22:45;9.23;;;5.70;;
53497;SDS011;39382;47.168;16.008;2023-06-22T06:25:11;8.57;;;5.90;;
53497;SDS011;39382;47.168;16.008;2023-06-22T06:27:47;13.52;;;6.75;;
53497;SDS011;39382;47.168;16.008;2023-06-22T06:30:18;13.50;;;6.38;;
53497;SDS011;39382;47.168;16.008;2023-06-22T06:32:44;6.80;;;5.40;;
53497;SDS011;39382;47.168;16.008;2023-06-22T06:35:10;6.88;;;4.97;;
53497;SDS011;39382;47.168;16.008;2023-06-22T06:37:38;12.98;;;5.20;;
53497;SDS011;39382;47.168;16.008;2023-06-22T06:40:09;11.93;;;6.43;;
53497;SDS011;39382;47.168;16.008;2023-06-22T06:42:37;14.75;;;5.72;;
53497;SDS011;39382;47.168;16.008;2023-06-22T06:45:05;10.15;;;5.35;;
53497;SDS011;39382;47.168;16.008;2023-06-22T06:47:31;11.70;;;5.38;;
53497;SDS011;39382;47.168;16.008;2023-06-22T06:49:57;10.23;;;5.38;;
53497;SDS011;39382;47.168;16.008;2023-06-22T06:52:23;11.85;;;5.78;;
53497;SDS011;39382;47.168;16.008;2023-06-22T06:54:48;7.55;;;5.88;;
53497;SDS011;39382;47.168;16.008;2023-06-22T06:57:16;8.02;;;5.05;;
53497;SDS011;39382;47.168;16.008;2023-06-22T06:59:42;9.55;;;5.13;;
53497;SDS011;39382;47.168;16.008;2023-06-22T07:02:08;9.70;;;5.53;;
53497;SDS011;39382;47.168;16.008;2023-06-22T07:04:33;9.18;;;5.45;;
53497;SDS011;39382;47.168;16.008;2023-06-22T07:07:00;10.55;;;4.50;;
53497;SDS011;39382;47.168;16.008;2023-06-22T07:09:27;12.13;;;5.63;;
53497;SDS011;39382;47.168;16.008;2023-06-22T07:11:52;10.30;;;5.55;;
53497;SDS011;39382;47.168;16.008;2023-06-22T07:14:18;16.15;;;5.38;;
53497;SDS011;39382;47.168;16.008;2023-06-22T07:16:44;8.32;;;5.00;;
53497;SDS011;39382;47.168;16.008;2023-06-22T07:19:11;7.60;;;4.95;;
53497;SDS011;39382;47.168;16.008;2023-06-22T07:21:37;8.10;;;4.53;;
53497;SDS011;39382;47.168;16.008;2023-06-22T07:24:04;5.75;;;4.53;;
53497;SDS011;39382;47.168;16.008;2023-06-22T07:26:33;10.68;;;5.35;;
53497;SDS011;39382;47.168;16.008;2023-06-22T07:28:59;7.78;;;4.20;;
53497;SDS011;39382;47.168;16.008;2023-06-22T07:31:25;7.35;;;4.60;;
53497;SDS011;39382;47.168;16.008;2023-06-22T07:33:51;6.13;;;4.07;;
53497;SDS011;39382;47.168;16.008;2023-06-22T07:36:17;12.88;;;5.55;;
53497;SDS011;39382;47.168;16.008;2023-06-22T07:38:43;5.30;;;4.55;;
53497;SDS011;39382;47.168;16.008;2023-06-22T07:41:09;6.30;;;4.00;;
53497;SDS011;39382;47.168;16.008;2023-06-22T07:43:35;6.82;;;4.07;;
53497;SDS011;39382;47.168;16.008;2023-06-22T07:46:05;8.95;;;4.85;;
53497;SDS011;39382;47.168;16.008;2023-06-22T07:48:31;8.20;;;4.00;;
53497;SDS011;39382;47.168;16.008;2023-06-22T07:50:56;6.85;;;4.50;;
53497;SDS011;39382;47.168;16.008;2023-06-22T07:53:22;16.05;;;4.75;;
53497;SDS011;39382;47.168;16.008;2023-06-22T07:55:48;7.00;;;4.93;;
53497;SDS011;39382;47.168;16.008;2023-06-22T07:58:14;8.95;;;4.53;;
53497;SDS011;39382;47.168;16.008;2023-06-22T08:00:40;7.25;;;4.20;;
53497;SDS011;39382;47.168;16.008;2023-06-22T08:03:06;5.78;;;4.03;;
53497;SDS011;39382;47.168;16.008;2023-06-22T08:05:32;9.30;;;4.50;;
53497;SDS011;39382;47.168;16.008;2023-06-22T08:07:58;6.88;;;4.57;;
53497;SDS011;39382;47.168;16.008;2023-06-22T08:10:23;6.10;;;4.40;;
53497;SDS011;39382;47.168;16.008;2023-06-22T08:12:49;6.68;;;4.75;;
53497;SDS011;39382;47.168;16.008;2023-06-22T08:15:16;7.80;;;5.10;;
53497;SDS011;39382;47.168;16.008;2023-06-22T08:17:43;6.40;;;3.83;;
53497;SDS011;39382;47.168;16.008;2023-06-22T08:20:10;8.80;;;4.63;;
53497;SDS011;39382;47.168;16.008;2023-06-22T08:22:42;6.40;;;4.15;;
53497;SDS011;39382;47.168;16.008;2023-06-22T08:25:08;5.80;;;4.07;;
53497;SDS011;39382;47.168;16.008;2023-06-22T08:27:34;7.93;;;4.70;;
53497;SDS011;39382;47.168;16.008;2023-06-22T08:30:00;7.32;;;4.78;;
53497;SDS011;39382;47.168;16.008;2023-06-22T08:32:27;8.32;;;4.63;;
53497;SDS011;39382;47.168;16.008;2023-06-22T08:34:56;8.20;;;5.10;;
53497;SDS011;39382;47.168;16.008;2023-06-22T08:37:22;9.15;;;4.18;;
53497;SDS011;39382;47.168;16.008;2023-06-22T08:39:56;4.55;;;3.30;;
53497;SDS011;39382;47.168;16.008;2023-06-22T08:42:23;10.35;;;5.88;;
53497;SDS011;39382;47.168;16.008;2023-06-22T08:44:49;7.72;;;3.95;;
53497;SDS011;39382;47.168;16.008;2023-06-22T08:47:15;5.22;;;4.20;;
53497;SDS011;39382;47.168;16.008;2023-06-22T08:49:41;6.40;;;4.20;;
53497;SDS011;39382;47.168;16.008;2023-06-22T08:52:06;8.80;;;4.20;;
53497;SDS011;39382;47.168;16.008;2023-06-22T08:54:32;10.30;;;4.38;;
53497;SDS011;39382;47.168;16.008;2023-06-22T08:56:59;7.15;;;5.18;;
53497;SDS011;39382;47.168;16.008;2023-06-22T08:59:25;6.95;;;4.30;;
53497;SDS011;39382;47.168;16.008;2023-06-22T09:01:51;7.28;;;4.63;;
53497;SDS011;39382;47.168;16.008;2023-06-22T09:04:17;7.55;;;4.43;;
53497;SDS011;39382;47.168;16.008;2023-06-22T09:06:42;6.72;;;4.60;;
53497;SDS011;39382;47.168;16.008;2023-06-22T09:09:10;11.57;;;5.07;;
53497;SDS011;39382;47.168;16.008;2023-06-22T09:11:37;11.93;;;5.07;;
53497;SDS011;39382;47.168;16.008;2023-06-22T09:14:03;9.18;;;4.88;;
53497;SDS011;39382;47.168;16.008;2023-06-22T09:16:29;7.88;;;5.07;;
53497;SDS011;39382;47.168;16.008;2023-06-22T09:18:55;8.00;;;4.57;;
53497;SDS011;39382;47.168;16.008;2023-06-22T09:21:21;7.63;;;5.18;;
53497;SDS011;39382;47.168;16.008;2023-06-22T09:23:46;6.65;;;4.13;;
53497;SDS011;39382;47.168;16.008;2023-06-22T09:26:16;6.85;;;4.47;;
53497;SDS011;39382;47.168;16.008;2023-06-22T09:28:44;9.85;;;4.22;;
53497;SDS011;39382;47.168;16.008;2023-06-22T09:31:11;7.20;;;4.10;;
53497;SDS011;39382;47.168;16.008;2023-06-22T09:33:36;7.18;;;4.50;;
53497;SDS011;39382;47.168;16.008;2023-06-22T09:36:05;8.50;;;4.32;;
53497;SDS011;39382;47.168;16.008;2023-06-22T09:38:37;9.82;;;4.50;;
53497;SDS011;39382;47.168;16.008;2023-06-22T09:41:03;6.03;;;4.80;;
53497;SDS011;39382;47.168;16.008;2023-06-22T09:43:30;7.53;;;4.22;;
53497;SDS011;39382;47.168;16.008;2023-06-22T09:45:57;7.57;;;4.47;;
53497;SDS011;39382;47.168;16.008;2023-06-22T09:48:23;6.93;;;5.43;;
53497;SDS011;39382;47.168;16.008;2023-06-22T09:50:48;8.65;;;4.70;;
53497;SDS011;39382;47.168;16.008;2023-06-22T09:53:14;6.85;;;4.57;;
53497;SDS011;39382;47.168;16.008;2023-06-22T09:55:40;6.10;;;4.55;;
53497;SDS011;39382;47.168;16.008;2023-06-22T09:58:06;7.90;;;3.65;;
53497;SDS011;39382;47.168;16.008;2023-06-22T10:00:31;7.90;;;4.45;;
53497;SDS011;39382;47.168;16.008;2023-06-22T10:02:57;6.43;;;3.90;;
53497;SDS011;39382;47.168;16.008;2023-06-22T10:05:23;9.85;;;4.38;;
53497;SDS011;39382;47.168;16.008;2023-06-22T10:07:49;7.97;;;3.72;;
53497;SDS011;39382;47.168;16.008;2023-06-22T10:10:15;10.23;;;4.07;;
53497;SDS011;39382;47.168;16.008;2023-06-22T10:12:42;6.28;;;3.88;;
53497;SDS011;39382;47.168;16.008;2023-06-22T10:15:10;9.38;;;4.50;;
53497;SDS011;39382;47.168;16.008;2023-06-22T10:17:36;4.75;;;3.47;;
53497;SDS011;39382;47.168;16.008;2023-06-22T10:20:02;6.07;;;4.65;;
53497;SDS011;39382;47.168;16.008;2023-06-22T10:22:37;10.63;;;4.35;;
53497;SDS011;39382;47.168;16.008;2023-06-22T10:25:07;7.28;;;3.78;;
53497;SDS011;39382;47.168;16.008;2023-06-22T10:27:33;11.90;;;4.45;;
53497;SDS011;39382;47.168;16.008;2023-06-22T10:29:59;8.07;;;5.05;;
53497;SDS011;39382;47.168;16.008;2023-06-22T10:32:25;6.03;;;4.75;;
53497;SDS011;39382;47.168;16.008;2023-06-22T10:34:50;9.27;;;5.03;;
53497;SDS011;39382;47.168;16.008;2023-06-22T10:37:16;6.68;;;4.07;;
53497;SDS011;39382;47.168;16.008;2023-06-22T10:39:42;8.07;;;5.20;;
53497;SDS011;39382;47.168;16.008;2023-06-22T10:42:07;8.93;;;5.88;;
53497;SDS011;39382;47.168;16.008;2023-06-22T10:44:33;7.22;;;4.53;;
53497;SDS011;39382;47.168;16.008;2023-06-22T10:46:58;9.57;;;4.43;;
53497;SDS011;39382;47.168;16.008;2023-06-22T10:49:24;5.65;;;3.92;;
53497;SDS011;39382;47.168;16.008;2023-06-22T10:51:50;6.70;;;4.18;;
53497;SDS011;39382;47.168;16.008;2023-06-22T10:54:15;5.40;;;3.60;;
53497;SDS011;39382;47.168;16.008;2023-06-22T10:56:43;7.88;;;4.63;;
53497;SDS011;39382;47.168;16.008;2023-06-22T10:59:09;8.32;;;4.53;;
53497;SDS011;39382;47.168;16.008;2023-06-22T11:01:34;6.28;;;4.75;;
53497;SDS011;39382;47.168;16.008;2023-06-22T11:04:01;7.15;;;4.07;;
53497;SDS011;39382;47.168;16.008;2023-06-22T11:06:27;8.65;;;4.07;;
53497;SDS011;39382;47.168;16.008;2023-06-22T11:08:53;8.73;;;4.22;;
53497;SDS011;39382;47.168;16.008;2023-06-22T11:11:19;7.18;;;4.50;;
53497;SDS011;39382;47.168;16.008;2023-06-22T11:13:44;5.75;;;3.75;;
53497;SDS011;39382;47.168;16.008;2023-06-22T11:16:10;7.30;;;4.68;;
53497;SDS011;39382;47.168;16.008;2023-06-22T11:18:36;8.40;;;4.78;;
53497;SDS011;39382;47.168;16.008;2023-06-22T11:21:02;7.63;;;4.20;;
53497;SDS011;39382;47.168;16.008;2023-06-22T11:23:27;13.73;;;5.53;;
53497;SDS011;39382;47.168;16.008;2023-06-22T11:25:54;5.03;;;3.97;;
53497;SDS011;39382;47.168;16.008;2023-06-22T11:28:20;7.13;;;4.50;;
53497;SDS011;39382;47.168;16.008;2023-06-22T11:30:45;10.57;;;4.25;;
53497;SDS011;39382;47.168;16.008;2023-06-22T11:33:11;7.82;;;4.63;;
53497;SDS011;39382;47.168;16.008;2023-06-22T11:35:37;8.38;;;4.13;;
53497;SDS011;39382;47.168;16.008;2023-06-22T11:38:02;8.18;;;5.00;;
53497;SDS011;39382;47.168;16.008;2023-06-22T11:40:29;9.10;;;5.20;;
53497;SDS011;39382;47.168;16.008;2023-06-22T11:42:55;8.70;;;4.40;;
53497;SDS011;39382;47.168;16.008;2023-06-22T11:45:21;4.88;;;4.20;;
53497;SDS011;39382;47.168;16.008;2023-06-22T11:47:46;7.60;;;4.05;;
53497;SDS011;39382;47.168;16.008;2023-06-22T11:50:12;5.47;;;4.10;;
53497;SDS011;39382;47.168;16.008;2023-06-22T11:52:38;6.90;;;4.40;;
53497;SDS011;39382;47.168;16.008;2023-06-22T11:55:04;5.75;;;3.75;;
53497;SDS011;39382;47.168;16.008;2023-06-22T11:57:35;11.93;;;4.40;;
53497;SDS011;39382;47.168;16.008;2023-06-22T12:00:02;7.25;;;5.13;;
53497;SDS011;39382;47.168;16.008;2023-06-22T12:02:41;5.85;;;4.25;;
53497;SDS011;39382;47.168;16.008;2023-06-22T12:05:07;8.10;;;4.35;;
53497;SDS011;39382;47.168;16.008;2023-06-22T12:07:33;5.85;;;4.05;;
53497;SDS011;39382;47.168;16.008;2023-06-22T12:09:58;6.63;;;3.88;;
53497;SDS011;39382;47.168;16.008;2023-06-22T12:12:24;9.65;;;5.05;;
53497;SDS011;39382;47.168;16.008;2023-06-22T12:14:50;7.80;;;5.20;;
53497;SDS011;39382;47.168;16.008;2023-06-22T12:17:15;8.13;;;4.50;;
53497;SDS011;39382;47.168;16.008;2023-06-22T12:19:41;8.15;;;5.18;;
53497;SDS011;39382;47.168;16.008;2023-06-22T12:22:06;7.78;;;5.18;;
53497;SDS011;39382;47.168;16.008;2023-06-22T12:24:32;8.05;;;4.68;;
53497;SDS011;39382;47.168;16.008;2023-06-22T12:26:58;8.07;;;4.88;;
53497;SDS011;39382;47.168;16.008;2023-06-22T12:29:23;7.57;;;4.95;;
53497;SDS011;39382;47.168;16.008;2023-06-22T12:31:49;8.05;;;5.10;;
53497;SDS011;39382;47.168;16.008;2023-06-22T12:34:14;5.05;;;4.47;;
53497;SDS011;39382;47.168;16.008;2023-06-22T12:36:40;7.60;;;5.15;;
53497;SDS011;39382;47.168;16.008;2023-06-22T12:39:06;5.45;;;4.95;;
53497;SDS011;39382;47.168;16.008;2023-06-22T12:41:31;8.00;;;5.47;;
53497;SDS011;39382;47.168;16.008;2023-06-22T12:43:57;7.50;;;5.38;;
53497;SDS011;39382;47.168;16.008;2023-06-22T12:46:23;7.47;;;5.70;;
53497;SDS011;39382;47.168;16.008;2023-06-22T12:48:48;10.55;;;6.32;;
53497;SDS011;39382;47.168;16.008;2023-06-22T12:51:20;9.10;;;5.00;;
53497;SDS011;39382;47.168;16.008;2023-06-22T12:53:47;6.38;;;5.13;;
53497;SDS011;39382;47.168;16.008;2023-06-22T12:56:12;11.82;;;5.65;;
53497;SDS011;39382;47.168;16.008;2023-06-22T12:58:38;7.55;;;4.95;;
53497;SDS011;39382;47.168;16.008;2023-06-22T13:01:04;11.45;;;5.72;;
53497;SDS011;39382;47.168;16.008;2023-06-22T13:03:29;9.77;;;5.68;;
53497;SDS011;39382;47.168;16.008;2023-06-22T13:05:55;11.55;;;6.47;;
53497;SDS011;39382;47.168;16.008;2023-06-22T13:08:20;7.93;;;5.07;;
53497;SDS011;39382;47.168;16.008;2023-06-22T13:10:46;5.88;;;4.85;;
53497;SDS011;39382;47.168;16.008;2023-06-22T13:13:12;7.25;;;5.85;;
53497;SDS011;39382;47.168;16.008;2023-06-22T13:15:37;7.68;;;5.95;;
53497;SDS011;39382;47.168;16.008;2023-06-22T13:18:03;11.35;;;6.18;;
53497;SDS011;39382;47.168;16.008;2023-06-22T13:20:29;7.05;;;6.05;;
53497;SDS011;39382;47.168;16.008;2023-06-22T13:22:54;9.63;;;5.47;;
53497;SDS011;39382;47.168;16.008;2023-06-22T13:25:21;6.65;;;5.18;;
53497;SDS011;39382;47.168;16.008;2023-06-22T13:27:48;9.85;;;5.80;;
53497;SDS011;39382;47.168;16.008;2023-06-22T13:30:15;14.10;;;6.32;;
53497;SDS011;39382;47.168;16.008;2023-06-22T13:32:41;7.53;;;5.47;;
53497;SDS011;39382;47.168;16.008;2023-06-22T13:35:08;9.00;;;5.82;;
53497;SDS011;39382;47.168;16.008;2023-06-22T13:37:37;7.97;;;5.45;;
53497;SDS011;39382;47.168;16.008;2023-06-22T13:40:03;6.95;;;5.60;;
53497;SDS011;39382;47.168;16.008;2023-06-22T13:42:31;9.27;;;5.88;;
53497;SDS011;39382;47.168;16.008;2023-06-22T13:44:58;7.10;;;6.03;;
53497;SDS011;39382;47.168;16.008;2023-06-22T13:47:23;6.82;;;5.32;;
53497;SDS011;39382;47.168;16.008;2023-06-22T13:49:49;7.22;;;5.75;;
53497;SDS011;39382;47.168;16.008;2023-06-22T13:52:15;8.35;;;5.00;;
53497;SDS011;39382;47.168;16.008;2023-06-22T13:54:40;7.45;;;5.28;;
53497;SDS011;39382;47.168;16.008;2023-06-22T13:57:06;8.02;;;5.03;;
53497;SDS011;39382;47.168;16.008;2023-06-22T13:59:32;9.48;;;5.82;;
53497;SDS011;39382;47.168;16.008;2023-06-22T14:01:57;8.20;;;5.00;;
53497;SDS011;39382;47.168;16.008;2023-06-22T14:04:23;11.27;;;5.82;;
53497;SDS011;39382;47.168;16.008;2023-06-22T14:06:49;7.25;;;5.80;;
53497;SDS011;39382;47.168;16.008;2023-06-22T14:09:15;7.82;;;5.07;;
53497;SDS011;39382;47.168;16.008;2023-06-22T14:11:40;10.05;;;5.50;;
53497;SDS011;39382;47.168;16.008;2023-06-22T14:14:06;7.20;;;5.43;;
53497;SDS011;39382;47.168;16.008;2023-06-22T14:16:31;12.63;;;5.40;;
53497;SDS011;39382;47.168;16.008;2023-06-22T14:18:57;11.18;;;5.25;;
53497;SDS011;39382;47.168;16.008;2023-06-22T14:21:23;6.20;;;4.97;;
53497;SDS011;39382;47.168;16.008;2023-06-22T14:23:48;10.05;;;4.93;;
53497;SDS011;39382;47.168;16.008;2023-06-22T14:26:17;7.22;;;5.22;;
53497;SDS011;39382;47.168;16.008;2023-06-22T14:28:46;9.15;;;5.90;;
53497;SDS011;39382;47.168;16.008;2023-06-22T14:31:14;10.10;;;5.30;;